Time;durP1;ratioP1;P1;durP2;ratioP2;P2;SDS_P1;SDS_P2;PMS_P1;PMS_P2;Temp;Humidity;BMP_temperature;BMP_pressure;BME280_temperature;BME280_humidity;BME280_pressure;Samples;Min_cycle;Max_cycle;Signal;HPM_P1;HPM_P2
2023/04/13 00:00:41;;;;;;;1.97;1.63;;;;;;;;;;5114679;28;20365;-84
2023/04/13 00:03:10;;;;;;;2.27;2.00;;;;;;;;;;5109411;28;20200;-83
2023/04/13 00:05:39;;;;;;;5.57;1.70;;;;;;;;;;5094688;28;20200;-84
2023/04/13 00:08:06;;;;;;;2.87;1.80;;;;;;;;;;5107593;28;20705;-83
2023/04/13 00:10:35;;;;;;;1.90;1.50;;;;;;;;;;5094823;28;20239;-84
2023/04/13 00:13:02;;;;;;;1.93;1.60;;;;;;;;;;5107767;28;20212;-84
2023/04/13 00:15:29;;;;;;;1.87;1.77;;;;;;;;;;5107734;28;20199;-85
2023/04/13 00:17:55;;;;;;;10.43;4.03;;;;;;;;;;5114616;28;20206;-84
2023/04/13 00:20:22;;;;;;;1.97;1.70;;;;;;;;;;5114221;28;20207;-84
2023/04/13 00:22:50;;;;;;;1.93;1.60;;;;;;;;;;5094173;28;20212;-84
2023/04/13 00:25:17;;;;;;;1.60;1.47;;;;;;;;;;5108125;28;20211;-84
2023/04/13 00:27:44;;;;;;;1.90;1.60;;;;;;;;;;5107403;28;20212;-81
2023/04/13 00:30:12;;;;;;;1.60;1.50;;;;;;;;;;5094138;28;20273;-82
2023/04/13 00:32:41;;;;;;;1.40;1.13;;;;;;;;;;5105940;28;20212;-82
2023/04/13 00:35:08;;;;;;;1.60;1.50;;;;;;;;;;5108576;28;20227;-81
2023/04/13 00:37:36;;;;;;;1.00;1.00;;;;;;;;;;5113856;28;20207;-82
2023/04/13 00:40:06;;;;;;;1.37;1.27;;;;;;;;;;5112447;28;20657;-81
2023/04/13 00:42:33;;;;;;;2.30;1.57;;;;;;;;;;5094102;28;20257;-82
2023/04/13 00:45:00;;;;;;;3.23;1.33;;;;;;;;;;5107562;28;20191;-83
2023/04/13 00:47:29;;;;;;;8.80;4.83;;;;;;;;;;5101495;28;20203;-81
2023/04/13 00:49:57;;;;;;;3.90;2.90;;;;;;;;;;5097957;28;22129;-82
2023/04/13 00:52:23;;;;;;;1.50;1.40;;;;;;;;;;5103218;28;20640;-82
2023/04/13 00:54:51;;;;;;;1.83;1.50;;;;;;;;;;5110596;28;20301;-81
2023/04/13 00:57:20;;;;;;;4.10;1.83;;;;;;;;;;5093039;28;20733;-82
2023/04/13 00:59:48;;;;;;;1.50;1.40;;;;;;;;;;5093242;28;20262;-81
2023/04/13 01:02:15;;;;;;;1.30;1.20;;;;;;;;;;5103948;28;20298;-83
2023/04/13 01:04:44;;;;;;;1.90;1.30;;;;;;;;;;5099778;28;20248;-79
2023/04/13 01:07:17;;;;;;;1.27;1.17;;;;;;;;;;5094232;28;20196;-80
2023/04/13 01:09:51;;;;;;;2.10;1.07;;;;;;;;;;5104290;28;20570;-80
2023/04/13 01:12:26;;;;;;;1.20;1.10;;;;;;;;;;5093372;28;20200;-80
2023/04/13 01:14:58;;;;;;;1.43;1.30;;;;;;;;;;5101370;28;20223;-80
2023/04/13 01:17:27;;;;;;;1.33;1.23;;;;;;;;;;5099097;28;20694;-78
2023/04/13 01:19:58;;;;;;;1.50;1.40;;;;;;;;;;5113047;28;20314;-80
2023/04/13 01:22:29;;;;;;;1.30;1.20;;;;;;;;;;5112379;28;20199;-79
2023/04/13 01:25:22;;;;;;;2.00;1.10;;;;;;;;;;5101618;28;20212;-80
2023/04/13 01:27:54;;;;;;;2.17;1.03;;;;;;;;;;5088515;28;20287;-78
2023/04/13 01:30:23;;;;;;;5.87;1.23;;;;;;;;;;5094621;28;20607;-78
2023/04/13 01:32:51;;;;;;;1.97;1.40;;;;;;;;;;5102607;28;20235;-78
2023/04/13 01:35:19;;;;;;;1.63;1.43;;;;;;;;;;5105475;28;20748;-77
2023/04/13 01:37:45;;;;;;;1.57;1.47;;;;;;;;;;5102108;28;20218;-78
2023/04/13 01:40:13;;;;;;;1.60;1.50;;;;;;;;;;5098983;28;20650;-77
2023/04/13 01:42:40;;;;;;;1.50;1.30;;;;;;;;;;5112229;28;20700;-78
2023/04/13 01:45:11;;;;;;;1.60;1.50;;;;;;;;;;5107193;28;20591;-77
2023/04/13 01:47:39;;;;;;;3.20;1.30;;;;;;;;;;5103688;28;20613;-77
2023/04/13 01:50:13;;;;;;;1.80;1.50;;;;;;;;;;5098789;28;20286;-77
2023/04/13 01:52:40;;;;;;;1.50;1.40;;;;;;;;;;5112062;28;20207;-77
2023/04/13 01:55:08;;;;;;;2.20;1.70;;;;;;;;;;5105281;28;20228;-78
2023/04/13 01:57:35;;;;;;;3.37;1.63;;;;;;;;;;5091007;28;20214;-78
2023/04/13 02:00:13;;;;;;;2.30;2.10;;;;;;;;;;5091846;28;20208;-76
2023/04/13 02:02:41;;;;;;;4.40;1.70;;;;;;;;;;5093353;28;20331;-78
2023/04/13 02:05:09;;;;;;;3.13;1.60;;;;;;;;;;5109680;28;20256;-77
2023/04/13 02:07:37;;;;;;;1.60;1.50;;;;;;;;;;5104900;28;20286;-79
2023/04/13 02:10:05;;;;;;;1.83;1.73;;;;;;;;;;5091324;28;20232;-78
2023/04/13 02:12:33;;;;;;;2.47;2.27;;;;;;;;;;5108103;28;20203;-79
2023/04/13 02:15:00;;;;;;;1.30;1.23;;;;;;;;;;5102584;28;20216;-79
2023/04/13 02:17:28;;;;;;;1.80;1.70;;;;;;;;;;5091332;28;20197;-82
2023/04/13 02:19:57;;;;;;;1.40;1.30;;;;;;;;;;5101313;28;20210;-77
2023/04/13 02:22:23;;;;;;;2.83;1.93;;;;;;;;;;5094270;28;20716;-79
2023/04/13 02:24:50;;;;;;;2.27;1.77;;;;;;;;;;5091360;28;20204;-79
2023/04/13 02:27:17;;;;;;;1.63;1.40;;;;;;;;;;5094379;28;20203;-78
2023/04/13 02:29:44;;;;;;;2.40;1.70;;;;;;;;;;5111612;28;20200;-79
2023/04/13 02:32:10;;;;;;;1.87;1.63;;;;;;;;;;5110844;28;20582;-78
2023/04/13 02:34:37;;;;;;;2.20;2.00;;;;;;;;;;5101177;28;20273;-78
2023/04/13 02:37:08;;;;;;;2.50;1.80;;;;;;;;;;5108338;28;20222;-78
2023/04/13 02:39:35;;;;;;;1.83;1.73;;;;;;;;;;5100139;28;20212;-79
2023/04/13 02:42:03;;;;;;;1.83;1.70;;;;;;;;;;5109048;28;20297;-78
2023/04/13 02:44:30;;;;;;;1.77;1.67;;;;;;;;;;5111848;28;20224;-79
2023/04/13 02:46:56;;;;;;;3.73;2.80;;;;;;;;;;5097569;28;20234;-80
2023/04/13 02:49:23;;;;;;;2.23;2.10;;;;;;;;;;5099020;28;20287;-79
2023/04/13 02:51:51;;;;;;;2.00;1.80;;;;;;;;;;5109761;28;20735;-78
2023/04/13 02:54:19;;;;;;;1.50;1.40;;;;;;;;;;5111198;28;20227;-79
2023/04/13 02:56:46;;;;;;;1.50;1.40;;;;;;;;;;5097785;28;20573;-79
2023/04/13 02:59:13;;;;;;;2.23;1.90;;;;;;;;;;5098081;28;20197;-80
2023/04/13 03:01:40;;;;;;;2.63;1.33;;;;;;;;;;5090447;28;20200;-80
2023/04/13 03:04:08;;;;;;;1.50;1.40;;;;;;;;;;5104685;28;20200;-79
2023/04/13 03:06:34;;;;;;;2.33;2.13;;;;;;;;;;5090816;28;20196;-80
2023/04/13 03:09:02;;;;;;;1.67;1.57;;;;;;;;;;5104378;28;20249;-81
2023/04/13 03:11:30;;;;;;;2.00;1.60;;;;;;;;;;5107731;28;20596;-81
2023/04/13 03:13:59;;;;;;;2.40;1.63;;;;;;;;;;5108515;28;20200;-82
2023/04/13 03:16:27;;;;;;;1.63;1.53;;;;;;;;;;5103184;28;20214;-81
2023/04/13 03:18:54;;;;;;;1.60;1.50;;;;;;;;;;5100870;28;20699;-81
2023/04/13 03:21:21;;;;;;;2.67;1.67;;;;;;;;;;5094897;28;20213;-81
2023/04/13 03:23:48;;;;;;;3.40;2.40;;;;;;;;;;5110094;28;20211;-81
2023/04/13 03:26:15;;;;;;;4.30;3.90;;;;;;;;;;5115435;28;20192;-81
2023/04/13 03:28:43;;;;;;;3.07;2.77;;;;;;;;;;5101476;28;20717;-81
2023/04/13 03:31:09;;;;;;;2.20;2.00;;;;;;;;;;5115214;28;20206;-81
2023/04/13 03:33:37;;;;;;;2.03;1.83;;;;;;;;;;5114647;28;20709;-81
2023/04/13 03:36:04;;;;;;;1.50;1.40;;;;;;;;;;5114710;28;20269;-83
2023/04/13 03:38:30;;;;;;;2.27;1.47;;;;;;;;;;5114581;28;20706;-80
2023/04/13 03:40:57;;;;;;;3.27;2.10;;;;;;;;;;5111555;28;20199;-78
2023/04/13 03:43:24;;;;;;;2.57;1.90;;;;;;;;;;5105100;28;20192;-81
2023/04/13 03:45:52;;;;;;;4.47;1.90;;;;;;;;;;5108086;28;20195;-80
2023/04/13 03:48:19;;;;;;;1.90;1.60;;;;;;;;;;5103118;28;20284;-81
2023/04/13 03:50:46;;;;;;;1.87;1.43;;;;;;;;;;5101127;28;20207;-81
2023/04/13 03:53:12;;;;;;;1.40;1.33;;;;;;;;;;5114713;28;20202;-81
2023/04/13 03:55:39;;;;;;;2.13;1.70;;;;;;;;;;5112072;28;20705;-81
2023/04/13 03:58:06;;;;;;;3.37;1.50;;;;;;;;;;5103489;28;20566;-81
2023/04/13 04:00:33;;;;;;;1.80;1.70;;;;;;;;;;5098838;28;20208;-81
2023/04/13 04:03:01;;;;;;;10.40;1.60;;;;;;;;;;5103708;28;20204;-80
2023/04/13 04:05:28;;;;;;;2.33;1.40;;;;;;;;;;5114570;28;20217;-82
2023/04/13 04:07:55;;;;;;;11.43;10.17;;;;;;;;;;5104587;28;20192;-78
2023/04/13 04:10:22;;;;;;;8.33;5.97;;;;;;;;;;5107860;28;20223;-80
2023/04/13 04:12:48;;;;;;;6.17;4.97;;;;;;;;;;5107030;28;20204;-80
2023/04/13 04:15:15;;;;;;;37.43;18.67;;;;;;;;;;5093969;28;20609;-80
2023/04/13 04:17:42;;;;;;;10.50;7.20;;;;;;;;;;5107712;28;20192;-80
2023/04/13 04:20:11;;;;;;;9.73;4.67;;;;;;;;;;5093565;28;20663;-80
2023/04/13 04:22:38;;;;;;;8.87;5.33;;;;;;;;;;5107293;28;20228;-81
2023/04/13 04:25:05;;;;;;;8.47;5.83;;;;;;;;;;5106332;28;20206;-84
2023/04/13 04:27:36;;;;;;;9.03;6.97;;;;;;;;;;5100278;28;20276;-81
2023/04/13 04:30:04;;;;;;;13.80;9.93;;;;;;;;;;5113066;28;20596;-81
2023/04/13 04:32:32;;;;;;;79.47;34.73;;;;;;;;;;5106211;28;20204;-81
2023/04/13 04:34:59;;;;;;;15.77;10.20;;;;;;;;;;5093244;28;20235;-81
2023/04/13 04:37:27;;;;;;;7.47;6.17;;;;;;;;;;5106058;28;20193;-81
2023/04/13 04:39:54;;;;;;;17.97;11.77;;;;;;;;;;5092715;28;20208;-81
2023/04/13 04:42:21;;;;;;;21.03;12.00;;;;;;;;;;5092321;28;20206;-81
2023/04/13 04:44:48;;;;;;;27.07;21.03;;;;;;;;;;5093268;28;20207;-80
2023/04/13 04:47:16;;;;;;;12.03;7.27;;;;;;;;;;5093064;28;20567;-81
2023/04/13 04:49:43;;;;;;;4.00;3.60;;;;;;;;;;5094767;28;20235;-81
2023/04/13 04:52:11;;;;;;;7.90;6.13;;;;;;;;;;5113600;28;20212;-81
2023/04/13 04:54:39;;;;;;;12.03;8.00;;;;;;;;;;5098278;28;20200;-81
2023/04/13 04:57:09;;;;;;;17.43;11.60;;;;;;;;;;5101841;28;20253;-82
2023/04/13 04:59:35;;;;;;;22.33;11.87;;;;;;;;;;5113359;28;20199;-85
2023/04/13 05:02:02;;;;;;;10.60;7.30;;;;;;;;;;5103827;28;20634;-80
2023/04/13 05:04:30;;;;;;;7.07;6.10;;;;;;;;;;5106516;28;20269;-80
2023/04/13 05:06:57;;;;;;;7.60;5.53;;;;;;;;;;5102983;28;20600;-81
2023/04/13 05:09:24;;;;;;;6.33;5.13;;;;;;;;;;5099436;28;20278;-81
2023/04/13 05:11:52;;;;;;;14.97;10.20;;;;;;;;;;5113414;28;20280;-81
2023/04/13 05:14:19;;;;;;;11.87;10.30;;;;;;;;;;5099259;28;20199;-81
2023/04/13 05:16:45;;;;;;;7.27;6.67;;;;;;;;;;5112826;28;20238;-81
2023/04/13 05:19:12;;;;;;;5.33;4.50;;;;;;;;;;5112676;28;20207;-81
2023/04/13 05:21:39;;;;;;;6.10;5.60;;;;;;;;;;5112860;28;20673;-81
2023/04/13 05:24:06;;;;;;;4.80;4.40;;;;;;;;;;5112624;28;20697;-82
2023/04/13 05:26:33;;;;;;;2.80;2.60;;;;;;;;;;5112879;28;20698;-80
2023/04/13 05:29:01;;;;;;;2.87;2.67;;;;;;;;;;5112104;28;20204;-81
2023/04/13 05:31:28;;;;;;;3.40;3.03;;;;;;;;;;5101201;28;20686;-80
2023/04/13 05:33:55;;;;;;;1.97;1.87;;;;;;;;;;5092158;28;20207;-80
2023/04/13 05:36:22;;;;;;;2.37;1.97;;;;;;;;;;5104070;28;20795;-81
2023/04/13 05:38:49;;;;;;;2.40;2.17;;;;;;;;;;5098717;28;20286;-81
2023/04/13 05:41:15;;;;;;;2.10;1.73;;;;;;;;;;5112458;28;20252;-81
2023/04/13 05:43:44;;;;;;;1.47;1.37;;;;;;;;;;5112276;28;20205;-81
2023/04/13 05:46:13;;;;;;;1.57;1.47;;;;;;;;;;5112356;28;20685;-81
2023/04/13 05:48:40;;;;;;;1.93;1.60;;;;;;;;;;5106256;28;20277;-81
2023/04/13 05:51:08;;;;;;;1.40;1.30;;;;;;;;;;5105584;28;20260;-81
2023/04/13 05:53:34;;;;;;;1.97;1.77;;;;;;;;;;5105674;28;20245;-81
2023/04/13 05:56:03;;;;;;;2.57;1.70;;;;;;;;;;5105398;28;20296;-82
2023/04/13 05:58:30;;;;;;;4.80;2.60;;;;;;;;;;5099511;28;20256;-81
2023/04/13 06:00:57;;;;;;;3.77;3.23;;;;;;;;;;5098511;28;20206;-81
2023/04/13 06:03:26;;;;;;;4.63;3.20;;;;;;;;;;5112108;28;20195;-82
2023/04/13 06:05:52;;;;;;;3.07;2.87;;;;;;;;;;5112010;28;20206;-82
2023/04/13 06:08:20;;;;;;;2.77;2.47;;;;;;;;;;5111936;28;22049;-81
2023/04/13 06:10:47;;;;;;;2.60;2.40;;;;;;;;;;5097675;28;20254;-81
2023/04/13 06:13:14;;;;;;;1.87;1.70;;;;;;;;;;5103822;28;20589;-82
2023/04/13 06:15:41;;;;;;;4.07;2.37;;;;;;;;;;5106436;28;20223;-83
2023/04/13 06:18:07;;;;;;;2.70;2.03;;;;;;;;;;5112150;28;20327;-82
2023/04/13 06:20:36;;;;;;;2.70;2.50;;;;;;;;;;5111940;28;20203;-82
2023/04/13 06:23:03;;;;;;;1.53;1.43;;;;;;;;;;5111482;28;20207;-82
2023/04/13 06:25:29;;;;;;;8.67;3.50;;;;;;;;;;5108919;28;20212;-82
2023/04/13 06:27:56;;;;;;;3.10;2.60;;;;;;;;;;5091515;28;20192;-81
2023/04/13 06:30:23;;;;;;;6.60;5.73;;;;;;;;;;5094624;28;20199;-81
2023/04/13 06:32:50;;;;;;;1.50;1.40;;;;;;;;;;5111595;28;20200;-82
2023/04/13 06:35:17;;;;;;;2.47;1.67;;;;;;;;;;5094307;28;20220;-82
2023/04/13 06:37:46;;;;;;;2.57;1.60;;;;;;;;;;5091447;28;20261;-82
2023/04/13 06:40:14;;;;;;;1.83;1.73;;;;;;;;;;5091582;28;20207;-82
2023/04/13 06:42:42;;;;;;;5.03;2.00;;;;;;;;;;5091130;28;20204;-82
2023/04/13 06:45:10;;;;;;;1.80;1.37;;;;;;;;;;5104896;28;20200;-82
2023/04/13 06:47:39;;;;;;;1.80;1.30;;;;;;;;;;5090915;28;20239;-82
2023/04/13 06:50:07;;;;;;;3.73;3.17;;;;;;;;;;5110423;28;20253;-81
2023/04/13 06:52:35;;;;;;;2.97;1.53;;;;;;;;;;5098473;28;20211;-82
2023/04/13 06:55:03;;;;;;;1.80;1.70;;;;;;;;;;5110885;28;20572;-81
2023/04/13 06:57:33;;;;;;;4.30;1.73;;;;;;;;;;5097706;28;20740;-82
2023/04/13 07:00:00;;;;;;;2.77;1.63;;;;;;;;;;5098307;28;20638;-81
2023/04/13 07:02:27;;;;;;;2.70;2.50;;;;;;;;;;5110742;28;20203;-82
2023/04/13 07:04:54;;;;;;;2.20;1.83;;;;;;;;;;5103986;28;20621;-82
2023/04/13 07:07:20;;;;;;;3.37;2.73;;;;;;;;;;5090916;28;20206;-82
2023/04/13 07:09:47;;;;;;;2.63;2.20;;;;;;;;;;5090729;28;20230;-82
2023/04/13 07:12:15;;;;;;;1.60;1.50;;;;;;;;;;5105229;28;20203;-82
2023/04/13 07:14:42;;;;;;;3.03;2.50;;;;;;;;;;5104686;28;20252;-82
2023/04/13 07:17:09;;;;;;;1.77;1.67;;;;;;;;;;5090605;28;20231;-83
2023/04/13 07:19:36;;;;;;;4.00;3.53;;;;;;;;;;5091660;28;20204;-82
2023/04/13 07:22:05;;;;;;;3.00;1.90;;;;;;;;;;5091205;28;20207;-82
2023/04/13 07:24:36;;;;;;;3.27;2.50;;;;;;;;;;5103456;28;20204;-82
2023/04/13 07:27:03;;;;;;;1.87;1.77;;;;;;;;;;5092606;28;20237;-82
2023/04/13 07:29:32;;;;;;;2.83;2.63;;;;;;;;;;5110881;28;20202;-82
2023/04/13 07:32:00;;;;;;;5.03;3.13;;;;;;;;;;5097693;28;20311;-82
2023/04/13 07:34:27;;;;;;;3.63;3.00;;;;;;;;;;5110788;28;20290;-81
2023/04/13 07:36:54;;;;;;;3.30;1.77;;;;;;;;;;5097355;28;20228;-81
2023/04/13 07:39:21;;;;;;;2.10;1.73;;;;;;;;;;5110505;28;20203;-82
2023/04/13 07:41:48;;;;;;;2.33;2.13;;;;;;;;;;5110809;28;20257;-81
2023/04/13 07:44:14;;;;;;;3.03;2.40;;;;;;;;;;5101319;28;20200;-82
2023/04/13 07:46:43;;;;;;;6.67;2.87;;;;;;;;;;5106972;28;20698;-82
2023/04/13 07:49:10;;;;;;;4.27;2.63;;;;;;;;;;5100734;28;20251;-82
2023/04/13 07:51:36;;;;;;;2.70;2.40;;;;;;;;;;5090634;28;20671;-81
2023/04/13 07:54:03;;;;;;;2.60;1.80;;;;;;;;;;5090652;28;20601;-81
2023/04/13 07:56:30;;;;;;;2.83;2.33;;;;;;;;;;5091530;28;20714;-81
2023/04/13 07:58:57;;;;;;;2.07;1.97;;;;;;;;;;5105222;28;20290;-81
2023/04/13 08:01:24;;;;;;;1.67;1.57;;;;;;;;;;5114275;28;20271;-81
2023/04/13 08:03:52;;;;;;;2.33;1.90;;;;;;;;;;5114648;28;20202;-81
2023/04/13 08:06:19;;;;;;;4.87;2.67;;;;;;;;;;5100514;28;20200;-82
2023/04/13 08:08:46;;;;;;;2.87;2.60;;;;;;;;;;5102907;28;20283;-81
2023/04/13 08:11:13;;;;;;;2.60;2.13;;;;;;;;;;5112805;28;20231;-81
2023/04/13 08:13:41;;;;;;;2.30;2.13;;;;;;;;;;5102983;28;20204;-86
2023/04/13 08:16:08;;;;;;;3.70;2.00;;;;;;;;;;5107563;28;20216;-82
2023/04/13 08:18:36;;;;;;;5.33;2.77;;;;;;;;;;5106321;28;20678;-81
2023/04/13 08:21:10;;;;;;;4.17;1.97;;;;;;;;;;5108234;28;20212;-82
2023/04/13 08:23:38;;;;;;;2.40;2.20;;;;;;;;;;5093860;28;20295;-82
2023/04/13 08:26:05;;;;;;;6.20;3.10;;;;;;;;;;5106634;28;20215;-82
2023/04/13 08:28:32;;;;;;;2.27;1.67;;;;;;;;;;5107453;28;20211;-82
2023/04/13 08:30:59;;;;;;;5.87;4.07;;;;;;;;;;5106449;28;20257;-81
2023/04/13 08:33:26;;;;;;;3.00;1.60;;;;;;;;;;5108013;28;20214;-83
2023/04/13 08:35:53;;;;;;;2.47;2.00;;;;;;;;;;5113721;28;20200;-82
2023/04/13 08:38:21;;;;;;;2.97;2.43;;;;;;;;;;5100233;28;20205;-82
2023/04/13 08:40:48;;;;;;;3.73;2.33;;;;;;;;;;5104813;28;20212;-82
2023/04/13 08:43:16;;;;;;;3.53;1.93;;;;;;;;;;5108841;28;20200;-81
2023/04/13 08:45:43;;;;;;;5.07;1.97;;;;;;;;;;5104507;28;20214;-82
2023/04/13 08:48:10;;;;;;;4.80;2.17;;;;;;;;;;5106894;28;20209;-81
2023/04/13 08:50:37;;;;;;;3.40;1.97;;;;;;;;;;5103564;28;20204;-81
2023/04/13 08:53:06;;;;;;;2.80;2.60;;;;;;;;;;5113730;28;20279;-82
2023/04/13 08:55:34;;;;;;;3.63;2.93;;;;;;;;;;5103148;28;20215;-82
2023/04/13 08:58:03;;;;;;;4.20;3.50;;;;;;;;;;5106484;28;20220;-81
2023/04/13 09:00:30;;;;;;;3.83;2.87;;;;;;;;;;5104415;28;20761;-82
2023/04/13 09:03:02;;;;;;;4.27;1.70;;;;;;;;;;5099712;28;20710;-82
2023/04/13 09:05:30;;;;;;;3.93;3.17;;;;;;;;;;5113535;28;20557;-82
2023/04/13 09:07:57;;;;;;;3.40;2.73;;;;;;;;;;5112251;28;20294;-81
2023/04/13 09:10:25;;;;;;;3.50;3.17;;;;;;;;;;5100561;28;20273;-82
2023/04/13 09:12:54;;;;;;;2.00;1.90;;;;;;;;;;5106173;28;20203;-82
2023/04/13 09:15:22;;;;;;;6.77;4.77;;;;;;;;;;5105220;28;20207;-81
2023/04/13 09:17:49;;;;;;;33.87;18.47;;;;;;;;;;5093514;28;20230;-81
2023/04/13 09:20:19;;;;;;;10.67;5.43;;;;;;;;;;5105608;28;20269;-82
2023/04/13 09:22:46;;;;;;;8.80;6.20;;;;;;;;;;5106501;28;20203;-79
2023/04/13 09:25:22;;;;;;;20.23;11.57;;;;;;;;;;5092388;28;20213;-80
2023/04/13 09:27:50;;;;;;;18.00;10.37;;;;;;;;;;5100555;28;20262;-81
2023/04/13 09:30:21;;;;;;;5.57;4.13;;;;;;;;;;5097666;28;20305;-81
2023/04/13 09:32:48;;;;;;;13.90;7.60;;;;;;;;;;5101607;28;20640;-81
2023/04/13 09:35:15;;;;;;;16.07;8.37;;;;;;;;;;5110368;28;20210;-81
2023/04/13 09:37:44;;;;;;;16.20;10.07;;;;;;;;;;5092642;28;20292;-80
2023/04/13 09:40:12;;;;;;;12.67;8.93;;;;;;;;;;5095053;28;20217;-80
2023/04/13 09:42:40;;;;;;;4.00;3.60;;;;;;;;;;5102716;28;20203;-80
2023/04/13 09:45:07;;;;;;;7.43;5.33;;;;;;;;;;5092261;28;20211;-80
2023/04/13 09:47:40;;;;;;;10.07;7.13;;;;;;;;;;5102515;28;20207;-80
2023/04/13 09:50:17;;;;;;;3.20;2.63;;;;;;;;;;5098535;28;20263;-80
2023/04/13 09:52:45;;;;;;;7.43;3.57;;;;;;;;;;5112505;28;20286;-82
2023/04/13 09:55:16;;;;;;;4.30;2.70;;;;;;;;;;5112405;28;20200;-80
2023/04/13 09:57:44;;;;;;;3.70;3.40;;;;;;;;;;5111895;28;20716;-86
2023/04/13 10:00:15;;;;;;;3.30;2.77;;;;;;;;;;5105025;28;20198;-80
2023/04/13 10:02:44;;;;;;;3.77;2.10;;;;;;;;;;5093218;28;20199;-80
2023/04/13 10:05:11;;;;;;;4.50;3.27;;;;;;;;;;5103850;28;20200;-80
2023/04/13 10:07:38;;;;;;;2.80;2.60;;;;;;;;;;5107220;28;20240;-80
2023/04/13 10:10:06;;;;;;;4.00;1.77;;;;;;;;;;5102950;28;20281;-80
2023/04/13 10:12:35;;;;;;;4.23;3.80;;;;;;;;;;5091469;28;20596;-80
2023/04/13 10:15:09;;;;;;;3.93;2.40;;;;;;;;;;5101619;28;20264;-80
2023/04/13 10:17:47;;;;;;;5.20;2.60;;;;;;;;;;5112098;28;20230;-80
2023/04/13 10:20:15;;;;;;;3.00;2.20;;;;;;;;;;5111831;28;20259;-81
2023/04/13 10:22:44;;;;;;;4.50;2.00;;;;;;;;;;5112138;28;20217;-80
2023/04/13 10:25:13;;;;;;;1.90;1.80;;;;;;;;;;5111858;28;20213;-80
2023/04/13 10:27:41;;;;;;;2.80;2.10;;;;;;;;;;5111459;28;20195;-80
2023/04/13 10:30:17;;;;;;;3.03;1.87;;;;;;;;;;5097596;28;20285;-80
2023/04/13 10:32:46;;;;;;;2.30;2.10;;;;;;;;;;5100602;28;20206;-84
2023/04/13 10:35:14;;;;;;;2.47;1.80;;;;;;;;;;5109132;28;20238;-80
2023/04/13 10:37:44;;;;;;;12.07;8.57;;;;;;;;;;5091219;28;20620;-80
2023/04/13 10:40:13;;;;;;;3.17;2.13;;;;;;;;;;5095016;28;20642;-80
2023/04/13 10:42:41;;;;;;;1.57;1.47;;;;;;;;;;5100559;28;20292;-80
2023/04/13 10:45:19;;;;;;;3.27;3.00;;;;;;;;;;5109323;28;20264;-81
2023/04/13 10:47:48;;;;;;;4.83;3.33;;;;;;;;;;5097859;28;20200;-81
2023/04/13 10:50:21;;;;;;;2.60;2.40;;;;;;;;;;5091079;28;20208;-80
2023/04/13 10:53:00;;;;;;;1.40;1.30;;;;;;;;;;5091945;28;20260;-81
2023/04/13 10:55:27;;;;;;;1.63;1.53;;;;;;;;;;5102076;28;20266;-81
2023/04/13 10:57:55;;;;;;;1.70;1.40;;;;;;;;;;5093356;28;20582;-81
2023/04/13 11:00:23;;;;;;;1.80;1.50;;;;;;;;;;5102143;28;20227;-81
2023/04/13 11:02:56;;;;;;;1.30;1.20;;;;;;;;;;5094524;28;20215;-81
2023/04/13 11:05:24;;;;;;;8.67;1.73;;;;;;;;;;5111329;28;20203;-81
2023/04/13 11:07:51;;;;;;;2.07;1.70;;;;;;;;;;5092964;28;20215;-81
2023/04/13 11:10:24;;;;;;;4.57;1.83;;;;;;;;;;5102885;28;20723;-80
2023/04/13 11:12:51;;;;;;;2.87;1.57;;;;;;;;;;5105463;28;20207;-81
2023/04/13 11:15:21;;;;;;;1.40;1.40;;;;;;;;;;5091227;28;20204;-81
2023/04/13 11:17:54;;;;;;;1.83;1.73;;;;;;;;;;5110184;28;20226;-81
2023/04/13 11:20:30;;;;;;;2.83;1.63;;;;;;;;;;5111014;28;20199;-81
2023/04/13 11:22:57;;;;;;;1.33;1.23;;;;;;;;;;5111171;28;20732;-80
2023/04/13 11:25:24;;;;;;;1.23;1.13;;;;;;;;;;5109570;28;20219;-81
2023/04/13 11:27:55;;;;;;;1.23;1.13;;;;;;;;;;5091084;28;20253;-81
2023/04/13 11:30:23;;;;;;;0.97;0.97;;;;;;;;;;5104653;28;20203;-81
2023/04/13 11:32:52;;;;;;;5.43;4.93;;;;;;;;;;5094335;28;20695;-81
2023/04/13 11:35:22;;;;;;;5.57;3.57;;;;;;;;;;5108107;28;20204;-81
2023/04/13 11:37:51;;;;;;;5.90;5.23;;;;;;;;;;5104846;28;20246;-81
2023/04/13 11:40:21;;;;;;;2.33;1.73;;;;;;;;;;5110728;28;20207;-81
2023/04/13 11:42:50;;;;;;;1.97;1.47;;;;;;;;;;5106072;28;20200;-81
2023/04/13 11:45:17;;;;;;;4.47;3.73;;;;;;;;;;5101181;28;20195;-81
2023/04/13 11:47:44;;;;;;;2.87;2.67;;;;;;;;;;5114468;28;20199;-80
2023/04/13 11:50:12;;;;;;;6.00;3.73;;;;;;;;;;5114994;28;20237;-80
2023/04/13 11:52:41;;;;;;;2.50;2.30;;;;;;;;;;5102484;28;20200;-80
2023/04/13 11:55:09;;;;;;;5.23;4.00;;;;;;;;;;5100012;28;20294;-81
2023/04/13 11:57:36;;;;;;;4.10;2.70;;;;;;;;;;5114554;28;20246;-81
2023/04/13 12:00:10;;;;;;;2.70;2.47;;;;;;;;;;5114027;28;20217;-81
2023/04/13 12:02:40;;;;;;;5.00;3.67;;;;;;;;;;5100127;28;20207;-81
2023/04/13 12:05:10;;;;;;;8.37;6.43;;;;;;;;;;5094073;28;20227;-80
2023/04/13 12:07:41;;;;;;;2.70;2.43;;;;;;;;;;5093995;28;20204;-81
2023/04/13 12:10:09;;;;;;;3.33;1.40;;;;;;;;;;5103310;28;20314;-81
2023/04/13 12:12:36;;;;;;;4.73;3.10;;;;;;;;;;5110913;28;20236;-81
2023/04/13 12:15:04;;;;;;;12.67;9.00;;;;;;;;;;5094422;28;20289;-81
2023/04/13 12:17:32;;;;;;;4.67;2.83;;;;;;;;;;5093906;28;20224;-80
2023/04/13 12:19:59;;;;;;;1.40;1.30;;;;;;;;;;5104113;28;20203;-80
2023/04/13 12:22:36;;;;;;;1.53;1.30;;;;;;;;;;5096437;28;20616;-80
2023/04/13 12:25:15;;;;;;;3.40;1.90;;;;;;;;;;5093499;28;20207;-80
2023/04/13 12:27:42;;;;;;;1.10;1.10;;;;;;;;;;5100543;28;20211;-80
2023/04/13 12:30:11;;;;;;;1.57;1.47;;;;;;;;;;5100441;28;20200;-80
2023/04/13 12:32:40;;;;;;;1.10;1.10;;;;;;;;;;5105819;28;20208;-80
2023/04/13 12:35:08;;;;;;;1.13;1.03;;;;;;;;;;5094675;28;20649;-80
2023/04/13 12:37:35;;;;;;;2.50;1.27;;;;;;;;;;5105367;28;20896;-80
2023/04/13 12:40:04;;;;;;;2.53;1.43;;;;;;;;;;5093709;28;20305;-80
2023/04/13 12:42:32;;;;;;;1.90;1.40;;;;;;;;;;5102611;28;20723;-81
2023/04/13 12:44:59;;;;;;;2.07;1.60;;;;;;;;;;5113671;28;20195;-80
2023/04/13 12:47:26;;;;;;;1.70;1.50;;;;;;;;;;5103827;28;20320;-80
2023/04/13 12:49:52;;;;;;;2.70;1.67;;;;;;;;;;5106927;28;20196;-80
2023/04/13 12:52:19;;;;;;;1.70;1.50;;;;;;;;;;5103715;28;20195;-81
2023/04/13 12:54:46;;;;;;;4.50;1.60;;;;;;;;;;5109772;28;20204;-81
2023/04/13 12:57:15;;;;;;;1.40;1.30;;;;;;;;;;5093076;28;20196;-81
2023/04/13 12:59:44;;;;;;;1.40;1.30;;;;;;;;;;5111119;28;20274;-81
2023/04/13 13:02:11;;;;;;;2.30;1.27;;;;;;;;;;5113164;28;20220;-80
2023/04/13 13:04:38;;;;;;;4.17;1.50;;;;;;;;;;5113066;28;20207;-81
2023/04/13 13:07:05;;;;;;;4.13;3.80;;;;;;;;;;5113120;28;20249;-81
2023/04/13 13:09:31;;;;;;;3.03;2.83;;;;;;;;;;5107702;28;20682;-81
2023/04/13 13:11:58;;;;;;;2.17;1.67;;;;;;;;;;5092568;28;20200;-81
2023/04/13 13:14:25;;;;;;;7.33;4.50;;;;;;;;;;5092502;28;20207;-80
2023/04/13 13:16:53;;;;;;;2.63;1.70;;;;;;;;;;5092263;28;20752;-81
2023/04/13 13:19:20;;;;;;;1.63;1.53;;;;;;;;;;5105989;28;20717;-81
2023/04/13 13:21:46;;;;;;;3.80;3.50;;;;;;;;;;5092274;28;20675;-81
2023/04/13 13:24:13;;;;;;;2.73;2.53;;;;;;;;;;5093298;28;20254;-81
2023/04/13 13:26:40;;;;;;;7.40;4.77;;;;;;;;;;5092583;28;20205;-81
2023/04/13 13:29:07;;;;;;;2.43;2.23;;;;;;;;;;5106409;28;20207;-81
2023/04/13 13:31:33;;;;;;;4.80;1.87;;;;;;;;;;5092201;28;20204;-81
2023/04/13 13:34:02;;;;;;;1.60;1.50;;;;;;;;;;5098236;28;20210;-81
2023/04/13 13:36:29;;;;;;;2.00;1.23;;;;;;;;;;5099999;28;20227;-81
2023/04/13 13:38:56;;;;;;;1.30;1.20;;;;;;;;;;5105700;28;20718;-81
2023/04/13 13:41:24;;;;;;;1.03;1.03;;;;;;;;;;5105177;28;20187;-80
2023/04/13 13:43:51;;;;;;;3.17;2.33;;;;;;;;;;5099193;28;20195;-81
2023/04/13 13:46:17;;;;;;;2.43;2.23;;;;;;;;;;5112940;28;20257;-81
2023/04/13 13:48:46;;;;;;;1.37;1.27;;;;;;;;;;5112870;28;20203;-80
2023/04/13 13:51:15;;;;;;;2.83;2.00;;;;;;;;;;5098130;28;20212;-81
2023/04/13 13:53:41;;;;;;;3.03;2.70;;;;;;;;;;5099202;28;20666;-80
2023/04/13 13:56:08;;;;;;;4.03;2.87;;;;;;;;;;5111425;28;20611;-80
2023/04/13 13:58:35;;;;;;;1.17;1.10;;;;;;;;;;5099574;28;20227;-80
2023/04/13 14:01:03;;;;;;;1.87;1.77;;;;;;;;;;5096800;28;20635;-80
2023/04/13 14:03:31;;;;;;;4.53;3.20;;;;;;;;;;5100166;28;20203;-80
2023/04/13 14:05:58;;;;;;;1.17;1.07;;;;;;;;;;5096584;28;20287;-80
2023/04/13 14:08:26;;;;;;;0.97;0.97;;;;;;;;;;5091792;28;20208;-81
2023/04/13 14:10:52;;;;;;;1.50;1.40;;;;;;;;;;5093678;28;20224;-81
2023/04/13 14:13:19;;;;;;;1.10;1.00;;;;;;;;;;5112155;28;20575;-80
2023/04/13 14:15:46;;;;;;;3.57;3.03;;;;;;;;;;5098682;28;20197;-80
2023/04/13 14:18:13;;;;;;;5.47;3.90;;;;;;;;;;5102334;28;20220;-81
2023/04/13 14:20:40;;;;;;;8.90;4.27;;;;;;;;;;5091490;28;20204;-80
2023/04/13 14:23:07;;;;;;;2.23;2.03;;;;;;;;;;5101259;28;20195;-80
2023/04/13 14:25:39;;;;;;;4.90;4.40;;;;;;;;;;5097689;28;20581;-81
2023/04/13 14:28:07;;;;;;;4.03;1.73;;;;;;;;;;5100927;28;20203;-80
2023/04/13 14:30:36;;;;;;;5.33;4.10;;;;;;;;;;5105181;28;20196;-80
2023/04/13 14:33:04;;;;;;;7.47;5.70;;;;;;;;;;5103221;28;20613;-79
2023/04/13 14:35:31;;;;;;;7.13;5.63;;;;;;;;;;5111069;28;20235;-80
2023/04/13 14:37:58;;;;;;;6.07;4.40;;;;;;;;;;5111747;28;20250;-80
2023/04/13 14:40:26;;;;;;;3.10;2.53;;;;;;;;;;5092687;28;20603;-80
2023/04/13 14:42:54;;;;;;;6.33;3.63;;;;;;;;;;5091110;28;20200;-81
2023/04/13 14:45:21;;;;;;;4.47;3.03;;;;;;;;;;5110262;28;20195;-81